Time;durP1;ratioP1;P1;durP2;ratioP2;P2;SDS_P1;SDS_P2;PMS_P1;PMS_P2;Temp;Humidity;BMP_temperature;BMP_pressure;BME280_temperature;BME280_humidity;BME280_pressure;Samples;Min_cycle;Max_cycle;Signal;HPM_P1;HPM_P2
2023/06/05 00:00:09;;;;;;;3.22;1.58;;;16.20;80.50;;;16.58;74.72;101352.16;5173138;28;20057;-71
2023/06/05 00:02:44;;;;;;;1.30;1.02;;;16.20;81.10;;;16.52;74.05;101352.94;5174831;28;20050;-70
2023/06/05 00:05:18;;;;;;;1.83;1.10;;;16.10;80.80;;;16.47;74.41;101357.22;5170854;28;20058;-71
2023/06/05 00:07:51;;;;;;;1.35;1.08;;;16.10;81.30;;;16.42;74.50;101356.22;5162904;28;20137;-71
2023/06/05 00:10:24;;;;;;;1.58;1.15;;;16.00;82.20;;;16.36;75.21;101365.75;5174500;28;20046;-72
2023/06/05 00:12:56;;;;;;;2.00;1.35;;;16.00;82.30;;;16.29;75.94;101370.00;5166206;28;20573;-73
2023/06/05 00:15:28;;;;;;;1.02;0.93;;;15.90;83.10;;;16.24;76.38;101361.16;5164743;28;20137;-71
2023/06/05 00:18:00;;;;;;;2.00;1.10;;;15.80;83.70;;;16.15;76.25;101368.81;5172072;28;20046;-71
2023/06/05 00:20:32;;;;;;;1.33;1.00;;;15.80;84.00;;;16.10;75.99;101368.72;5177213;28;20053;-72
2023/06/05 00:23:06;;;;;;;1.58;1.33;;;15.70;84.00;;;16.06;76.28;101376.53;5176548;28;20038;-70
2023/06/05 00:25:39;;;;;;;1.27;0.98;;;15.70;85.00;;;16.00;76.70;101378.16;5168864;28;20044;-71
2023/06/05 00:28:11;;;;;;;1.67;1.30;;;15.60;85.10;;;15.92;77.30;101374.50;5183242;28;20046;-71
2023/06/05 00:30:43;;;;;;;1.42;1.13;;;15.60;85.90;;;15.87;77.83;101372.59;5165970;28;20046;-71
2023/06/05 00:33:17;;;;;;;1.77;1.38;;;15.50;86.60;;;15.85;78.46;101374.31;5172405;28;20121;-71
2023/06/05 00:35:49;;;;;;;1.27;1.00;;;15.50;87.50;;;15.83;78.70;101368.13;5177164;28;20046;-71
2023/06/05 00:38:23;;;;;;;2.42;1.30;;;15.50;88.20;;;15.81;79.01;101364.59;5183211;28;20048;-71
2023/06/05 00:40:55;;;;;;;1.25;1.05;;;15.40;88.80;;;15.76;79.06;101358.31;5183436;28;20050;-72
2023/06/05 00:43:27;;;;;;;1.52;1.25;;;15.40;89.30;;;15.73;79.54;101361.78;5183631;28;20046;-71
2023/06/05 00:46:03;;;;;;;1.90;1.20;;;15.40;90.00;;;15.70;79.81;101361.69;5166378;28;20041;-71
2023/06/05 00:48:36;;;;;;;1.33;1.10;;;15.30;90.30;;;15.67;79.98;101366.91;5179938;28;20052;-71
2023/06/05 00:51:10;;;;;;;1.75;1.35;;;15.30;90.60;;;15.61;80.56;101364.09;5170917;28;20089;-71
2023/06/05 00:53:48;;;;;;;1.73;1.30;;;15.30;90.90;;;15.56;80.87;101363.97;5163844;28;20145;-68
2023/06/05 00:56:20;;;;;;;1.52;1.30;;;15.20;91.20;;;15.51;80.91;101364.72;5164846;28;20250;-66
2023/06/05 00:58:54;;;;;;;2.38;1.00;;;15.20;91.50;;;15.45;81.09;101371.63;5163967;28;20061;-66
2023/06/05 01:01:28;;;;;;;2.15;1.20;;;15.10;91.70;;;15.40;81.67;101372.38;5163844;28;20694;-66
2023/06/05 01:04:01;;;;;;;2.00;1.20;;;15.10;92.10;;;15.35;81.81;101364.38;5163434;28;20054;-67
2023/06/05 01:06:38;;;;;;;2.15;1.20;;;15.00;92.40;;;15.31;82.07;101369.50;5179021;28;20061;-66
2023/06/05 01:09:13;;;;;;;2.30;1.40;;;15.00;92.70;;;15.26;82.39;101368.47;5184399;28;20121;-68
2023/06/05 01:11:53;;;;;;;;;;;14.90;93.10;;;15.24;82.97;101365.81;5184506;28;20056;-66
2023/06/05 01:14:32;;;;;;;1.55;1.25;;;14.90;93.50;;;15.19;82.81;101368.34;5183064;28;19968;-66
2023/06/05 01:17:08;;;;;;;2.38;1.38;;;14.80;93.70;;;15.14;82.68;101380.47;5175340;28;20041;-66
2023/06/05 01:19:43;;;;;;;1.42;1.13;;;14.80;93.80;;;15.10;82.75;101373.38;5184035;28;20151;-65
2023/06/05 01:22:15;;;;;;;2.10;1.40;;;14.80;94.10;;;15.07;83.02;101367.16;5183262;28;20104;-66
2023/06/05 01:24:49;;;;;;;3.08;1.13;;;14.70;94.30;;;15.00;83.20;101365.22;5172943;28;20065;-66
2023/06/05 01:27:28;;;;;;;1.70;1.10;;;14.70;94.60;;;14.98;83.49;101357.28;5177939;28;20137;-66
2023/06/05 01:30:08;;;;;;;2.40;1.60;;;14.70;94.80;;;14.97;83.06;101359.88;5171252;28;20042;-68
2023/06/05 01:32:53;;;;;;;1.77;1.35;;;14.60;94.90;;;14.89;82.88;101357.94;5171938;28;20046;-66
2023/06/05 01:35:27;;;;;;;2.15;1.30;;;14.60;94.90;;;14.84;83.27;101356.06;5174689;28;20049;-66
2023/06/05 01:38:05;;;;;;;2.45;1.30;;;14.50;95.20;;;14.82;83.37;101350.78;5171160;28;20069;-65
2023/06/05 01:40:40;;;;;;;1.95;1.20;;;14.50;95.50;;;14.80;84.05;101355.09;5178977;28;20053;-67
2023/06/05 01:43:13;;;;;;;3.05;1.30;;;14.50;95.80;;;14.78;84.59;101348.91;5184226;28;20069;-66
2023/06/05 01:45:45;;;;;;;2.13;1.50;;;14.40;96.20;;;14.77;84.48;101352.38;5176070;28;20516;-67
2023/06/05 01:48:18;;;;;;;1.73;1.30;;;14.40;96.40;;;14.73;84.67;101347.88;5182978;28;20169;-66
2023/06/05 01:50:52;;;;;;;1.95;1.15;;;14.40;96.70;;;14.70;84.73;101350.44;5182348;28;20079;-66
2023/06/05 01:53:25;;;;;;;2.78;1.30;;;14.40;96.90;;;14.70;85.00;101352.19;5175939;28;20053;-66
2023/06/05 01:56:00;;;;;;;1.65;1.25;;;14.40;97.10;;;14.68;84.56;101346.00;5175400;28;20073;-67
2023/06/05 01:58:33;;;;;;;2.63;1.55;;;14.40;97.00;;;14.65;84.19;101355.56;5174624;28;20058;-67
2023/06/05 02:01:06;;;;;;;2.67;1.40;;;14.30;96.90;;;14.66;84.34;101348.56;5176200;28;20092;-66
2023/06/05 02:03:38;;;;;;;4.55;1.50;;;14.30;97.00;;;14.61;84.60;101345.84;5166438;28;20042;-66
2023/06/05 02:06:11;;;;;;;2.20;1.42;;;14.30;97.20;;;14.57;84.81;101343.97;5182382;28;20402;-65
2023/06/05 02:08:44;;;;;;;1.90;1.25;;;14.30;97.50;;;14.55;85.01;101339.53;5182084;28;20121;-66
2023/06/05 02:11:17;;;;;;;1.73;1.33;;;14.20;97.50;;;14.52;84.99;101344.69;5170190;28;20048;-66
2023/06/05 02:13:52;;;;;;;3.63;1.23;;;14.20;97.70;;;14.49;84.82;101347.25;5178221;28;20057;-66
2023/06/05 02:16:25;;;;;;;2.22;1.45;;;14.20;97.80;;;14.45;85.59;101342.72;5170467;28;20415;-66
2023/06/05 02:19:03;;;;;;;1.45;1.10;;;14.20;98.10;;;14.46;85.57;101341.84;5174922;28;20049;-66
2023/06/05 02:21:35;;;;;;;2.50;1.30;;;14.10;98.20;;;14.42;85.88;101332.16;5173887;28;20057;-65
2023/06/05 02:24:08;;;;;;;1.98;1.20;;;14.10;98.40;;;14.39;85.92;101332.94;5183516;28;20432;-66
2023/06/05 02:26:43;;;;;;;2.22;1.40;;;14.10;98.50;;;14.36;85.59;101336.38;5183107;28;20044;-66
2023/06/05 02:29:15;;;;;;;2.30;1.27;;;14.10;98.60;;;14.33;85.56;101336.25;5182267;28;20065;-66
2023/06/05 02:31:47;;;;;;;1.65;1.20;;;14.10;98.60;;;14.30;85.56;101335.31;5182129;28;20057;-66
2023/06/05 02:34:20;;;;;;;1.83;1.30;;;14.00;98.60;;;14.26;85.64;101336.06;5176462;28;20132;-66
2023/06/05 02:36:52;;;;;;;1.80;1.23;;;14.00;98.60;;;14.21;85.85;101333.28;5172425;28;20053;-68
2023/06/05 02:39:25;;;;;;;2.38;1.55;;;13.90;98.70;;;14.19;86.01;101334.09;5174887;28;20100;-66
2023/06/05 02:41:59;;;;;;;1.73;1.17;;;13.90;99.00;;;14.15;86.14;101327.91;5173075;28;20046;-66
2023/06/05 02:44:33;;;;;;;;;;;13.80;99.10;;;14.09;86.00;101325.09;5174353;28;20052;-67
2023/06/05 02:47:07;;;;;;;2.63;1.63;;;13.80;98.90;;;14.06;85.94;101332.88;5174272;28;19925;-66
2023/06/05 02:49:40;;;;;;;2.22;1.30;;;13.70;99.00;;;14.01;85.98;101330.09;5198104;28;20045;-66
2023/06/05 02:52:12;;;;;;;1.95;1.40;;;13.70;99.10;;;13.96;86.57;101325.59;5173971;28;20218;-66
2023/06/05 02:54:44;;;;;;;1.60;1.27;;;13.70;99.40;;;13.92;87.09;101326.34;5175598;28;20488;-66
2023/06/05 02:57:18;;;;;;;1.63;1.35;;;13.60;99.60;;;13.88;87.11;101322.72;5173825;28;20042;-67
2023/06/05 02:59:52;;;;;;;2.72;1.45;;;13.60;99.70;;;13.85;86.93;101323.53;5170942;28;20057;-66
2023/06/05 03:02:27;;;;;;;2.55;1.40;;;13.60;99.80;;;13.83;86.56;101325.22;5176867;28;20056;-66
2023/06/05 03:05:00;;;;;;;1.60;1.20;;;13.50;99.70;;;13.81;86.68;101326.88;5174983;28;20467;-66
2023/06/05 03:07:33;;;;;;;2.67;1.33;;;13.50;99.70;;;13.78;86.35;101326.81;5173875;28;20069;-66
2023/06/05 03:10:10;;;;;;;2.38;1.48;;;13.50;99.80;;;13.76;85.95;101323.28;5174363;28;20423;-67
2023/06/05 03:12:43;;;;;;;3.10;1.60;;;13.50;99.40;;;13.74;85.98;101318.81;5173576;28;20049;-67
2023/06/05 03:15:18;;;;;;;2.47;1.50;;;13.50;99.50;;;13.74;85.58;101319.69;5173803;28;20069;-68
2023/06/05 03:17:51;;;;;;;3.17;1.45;;;13.50;99.40;;;13.72;85.81;101323.13;5177952;28;20042;-66
2023/06/05 03:20:27;;;;;;;2.80;1.48;;;13.50;99.50;;;13.68;86.31;101324.75;5168748;28;20475;-67
2023/06/05 03:23:00;;;;;;;1.88;1.30;;;13.40;99.60;;;13.63;86.41;101328.97;5173865;28;20184;-66
2023/06/05 03:25:32;;;;;;;3.13;1.45;;;13.40;99.80;;;13.58;86.99;101328.81;5181239;28;20100;-67
2023/06/05 03:28:06;;;;;;;3.08;1.45;;;13.30;99.90;;;13.51;87.13;101332.09;5173078;28;20046;-67
2023/06/05 03:30:38;;;;;;;2.47;1.30;;;13.30;99.90;;;13.47;87.72;101324.97;5173448;28;20046;-66
2023/06/05 03:33:14;;;;;;;2.38;1.20;;;13.20;99.90;;;13.45;88.62;101331.03;5181597;28;20046;-66
2023/06/05 03:35:48;;;;;;;2.13;1.50;;;13.20;99.90;;;13.40;88.69;101329.97;5183015;28;20050;-68
2023/06/05 03:38:21;;;;;;;3.03;1.17;;;13.10;99.90;;;13.38;89.05;101332.56;5178998;28;20372;-66
2023/06/05 03:40:53;;;;;;;2.40;1.25;;;13.10;99.90;;;13.40;89.16;101336.09;5176958;28;20042;-66
2023/06/05 03:43:28;;;;;;;1.90;1.50;;;13.10;99.90;;;13.41;88.92;101337.00;5178303;28;20047;-66
2023/06/05 03:46:00;;;;;;;2.00;1.45;;;13.10;99.90;;;13.38;88.62;101335.19;5177768;28;20100;-65
2023/06/05 03:48:32;;;;;;;2.80;1.52;;;13.10;99.90;;;13.37;88.70;101327.28;5177308;28;20058;-66
2023/06/05 03:51:05;;;;;;;2.55;1.55;;;13.10;99.90;;;13.32;88.87;101323.63;5169051;28;20049;-66
2023/06/05 03:53:39;;;;;;;2.55;1.25;;;13.10;99.90;;;13.26;89.08;101330.44;5176995;28;20057;-67
2023/06/05 03:56:15;;;;;;;2.17;1.30;;;13.00;99.90;;;13.26;88.80;101334.78;5184871;28;20418;-65
2023/06/05 03:58:49;;;;;;;2.53;1.30;;;13.00;99.90;;;13.26;89.07;101329.53;5182953;28;20042;-66
2023/06/05 04:01:21;;;;;;;2.60;1.85;;;13.00;99.90;;;13.25;89.09;101333.88;5174210;28;20049;-65
2023/06/05 04:03:53;;;;;;;2.67;1.55;;;13.00;99.90;;;13.27;89.43;101340.06;5175462;28;20037;-67
2023/06/05 04:06:26;;;;;;;3.35;1.60;;;13.00;99.90;;;13.29;89.42;101335.75;5176628;28;20049;-66
2023/06/05 04:08:58;;;;;;;4.35;1.42;;;13.00;99.90;;;13.32;89.06;101334.09;5225963;23;20050;-78
2023/06/05 04:11:33;;;;;;;1.80;1.50;;;13.10;99.90;;;13.35;89.65;101342.03;5203651;28;20167;-78
2023/06/05 04:14:07;;;;;;;1.83;1.40;;;13.10;99.90;;;13.38;89.72;101340.41;5212600;28;20053;-77
2023/06/05 04:16:43;;;;;;;3.13;1.63;;;13.10;99.90;;;13.40;89.79;101340.44;5196344;28;20573;-78
2023/06/05 04:19:18;;;;;;;3.38;1.58;;;13.10;99.90;;;13.40;89.75;101337.84;5216268;28;20072;-78
2023/06/05 04:21:53;;;;;;;2.80;2.10;;;13.10;99.90;;;13.43;90.65;101348.38;5196255;28;20045;-78
2023/06/05 04:24:29;;;;;;;2.50;1.45;;;13.20;99.90;;;13.47;90.87;101347.66;5211280;28;20047;-78
2023/06/05 04:27:02;;;;;;;2.33;1.80;;;13.20;99.90;;;13.49;90.86;101343.34;5212900;28;20103;-78
2023/06/05 04:29:36;;;;;;;3.25;1.67;;;13.30;99.90;;;13.52;91.21;101348.69;5191747;28;20505;-78
2023/06/05 04:32:10;;;;;;;2.75;1.52;;;13.30;99.90;;;13.57;91.78;101344.50;5195504;28;20045;-79
2023/06/05 04:34:42;;;;;;;2.65;1.73;;;13.30;99.90;;;13.58;91.49;101346.28;5202967;28;20092;-79
2023/06/05 04:37:14;;;;;;;1.80;1.63;;;13.30;99.90;;;13.59;91.72;101355.91;5203020;28;20034;-78
2023/06/05 04:39:47;;;;;;;2.00;1.55;;;13.30;99.90;;;13.62;92.32;101350.75;5208230;28;20123;-78
2023/06/05 04:42:20;;;;;;;2.60;1.63;;;13.40;99.90;;;13.65;92.74;101356.09;5218071;28;20398;-79
2023/06/05 04:45:00;;;;;;;4.40;1.70;;;13.40;99.90;;;13.72;93.08;101358.06;5196407;28;20053;-78
2023/06/05 04:47:34;;;;;;;2.10;1.67;;;13.50;99.90;;;13.85;93.47;101359.34;5203166;28;20046;-78
2023/06/05 04:50:10;;;;;;;2.88;1.73;;;13.50;99.90;;;14.04;94.23;101372.16;5202793;28;20049;-78
2023/06/05 04:52:45;;;;;;;2.95;1.80;;;13.70;99.90;;;14.29;94.16;101358.03;5206649;28;20148;-78
2023/06/05 04:55:17;;;;;;;5.18;2.33;;;13.90;99.90;;;14.59;92.84;101357.13;5189447;28;20095;-77
2023/06/05 04:57:51;;;;;;;4.22;2.30;;;14.20;99.90;;;14.91;91.49;101361.50;5200495;28;20073;-79
2023/06/05 05:00:25;;;;;;;5.05;2.08;;;14.50;99.90;;;15.18;87.88;101368.28;5174265;28;20429;-78
2023/06/05 05:02:59;;;;;;;4.25;2.25;;;14.80;99.90;;;15.47;85.62;101356.78;5227732;28;20034;-76
2023/06/05 05:05:34;;;;;;;5.90;2.60;;;15.00;99.90;;;15.77;82.81;101363.63;5203610;28;20091;-78
2023/06/05 05:08:09;;;;;;;3.47;2.08;;;15.30;99.40;;;16.01;81.26;101363.28;5187677;28;20099;-78
2023/06/05 05:10:43;;;;;;;3.75;2.05;;;15.60;98.60;;;16.22;81.49;101362.84;5203189;28;20481;-77
2023/06/05 05:13:17;;;;;;;4.97;2.03;;;15.80;98.60;;;16.39;80.16;101366.72;5205441;28;20043;-78
2023/06/05 05:15:52;;;;;;;6.43;2.60;;;15.90;98.00;;;16.64;78.48;101373.34;5205459;28;20076;-77
2023/06/05 05:18:28;;;;;;;5.60;2.78;;;16.20;97.20;;;16.86;76.87;101369.41;5199950;28;20048;-78
2023/06/05 05:21:00;;;;;;;4.70;2.33;;;16.40;96.40;;;17.04;75.32;101372.34;5203837;28;20521;-78
2023/06/05 05:23:33;;;;;;;3.58;1.83;;;16.60;95.50;;;17.21;74.76;101366.47;5211886;28;20041;-78
2023/06/05 05:26:05;;;;;;;6.93;2.38;;;16.70;95.10;;;17.39;73.82;101360.63;5208734;28;20056;-78
2023/06/05 05:28:40;;;;;;;6.63;2.40;;;16.90;94.60;;;17.49;73.12;101365.19;5187137;28;20045;-77
2023/06/05 05:31:13;;;;;;;5.43;2.35;;;17.00;94.00;;;17.71;72.83;101371.66;5199764;28;20139;-78
2023/06/05 05:33:46;;;;;;;5.88;2.15;;;17.20;93.90;;;17.88;72.24;101368.44;5207147;28;20144;-78
2023/06/05 05:36:19;;;;;;;6.07;2.45;;;17.40;93.50;;;18.12;71.03;101365.25;5210019;28;20045;-78
2023/06/05 05:38:53;;;;;;;7.13;2.20;;;17.60;92.90;;;18.33;70.18;101369.03;5219557;28;20080;-78
2023/06/05 05:41:26;;;;;;;5.10;2.47;;;17.80;92.40;;;18.59;69.62;101370.22;5187010;28;20136;-78
2023/06/05 05:43:58;;;;;;;4.85;2.00;;;18.00;92.00;;;18.76;68.87;101369.53;5214416;28;20413;-78
2023/06/05 05:46:32;;;;;;;4.57;2.60;;;18.20;91.50;;;18.94;68.73;101367.09;5191694;28;20053;-80
2023/06/05 05:49:05;;;;;;;6.95;2.13;;;18.40;91.30;;;19.07;67.16;101363.69;5211031;28;20053;-80
2023/06/05 05:51:37;;;;;;;4.95;2.45;;;18.50;90.40;;;19.25;66.46;101369.13;5214380;28;20121;-79
2023/06/05 05:54:10;;;;;;;7.35;2.50;;;18.60;90.00;;;19.39;65.68;101369.25;5215601;28;20493;-79
2023/06/05 05:56:43;;;;;;;5.32;1.92;;;18.70;89.30;;;19.56;65.61;101374.69;5190122;28;20051;-80
2023/06/05 05:59:16;;;;;;;4.20;1.70;;;18.90;88.80;;;19.63;64.03;101379.16;5209651;28;20469;-80
2023/06/05 06:01:51;;;;;;;3.60;2.00;;;18.90;86.80;;;19.75;63.35;101378.34;5193896;28;20061;-80
2023/06/05 06:04:23;;;;;;;3.22;1.73;;;19.10;86.00;;;19.75;63.38;101376.56;5219175;28;20580;-88
2023/06/05 06:06:56;;;;;;;3.95;1.90;;;19.10;85.40;;;19.68;64.52;101380.06;5173282;28;20045;-87
2023/06/05 06:09:28;;;;;;;2.92;1.77;;;19.10;86.20;;;19.64;64.86;101375.63;5222598;28;20059;-88
2023/06/05 06:12:05;;;;;;;5.18;2.08;;;19.00;86.40;;;19.59;64.75;101374.72;5189416;28;20061;-87
2023/06/05 06:14:37;;;;;;;3.88;1.88;;;19.00;86.40;;;19.67;64.04;101382.69;5212441;28;20071;-88
2023/06/05 06:17:12;;;;;;;3.55;1.73;;;19.00;85.50;;;19.72;64.25;101381.84;5209480;28;20049;-87
2023/06/05 06:19:44;;;;;;;5.57;1.80;;;19.10;85.70;;;19.73;63.78;101378.34;5220364;28;20139;-87
2023/06/05 06:22:16;;;;;;;4.25;2.10;;;19.10;84.90;;;19.79;63.50;101385.41;5190343;28;20045;-89
2023/06/05 06:24:50;;;;;;;4.05;1.80;;;19.10;84.60;;;19.89;63.11;101383.75;5201923;28;20060;-88
2023/06/05 06:27:22;;;;;;;4.25;1.90;;;19.20;84.10;;;20.00;62.31;101379.38;5200761;28;20401;-86
2023/06/05 06:29:56;;;;;;;3.97;1.73;;;19.30;83.10;;;20.20;62.51;101387.41;5214453;28;20052;-86
2023/06/05 06:32:30;;;;;;;4.47;1.88;;;19.50;83.40;;;20.39;62.83;101386.59;5192098;28;20148;-88
2023/06/05 06:35:03;;;;;;;5.10;1.92;;;19.60;83.70;;;20.56;63.17;101394.66;5214970;28;20044;-86
2023/06/05 06:37:36;;;;;;;3.42;1.45;;;19.80;83.70;;;20.74;62.02;101384.13;5222166;28;20049;-80
2023/06/05 06:40:10;;;;;;;4.60;1.73;;;20.00;83.00;;;20.86;60.94;101392.09;5189329;28;20049;-79
2023/06/05 06:42:42;;;;;;;2.83;1.60;;;20.20;81.30;;;21.02;59.63;101390.34;5212897;28;20049;-80
2023/06/05 06:45:27;;;;;;;3.03;1.60;;;20.30;79.70;;;21.21;58.33;101398.31;5217986;28;20069;-79
2023/06/05 06:48:01;;;;;;;3.70;1.80;;;20.40;78.40;;;21.45;58.79;101390.38;5205735;28;20040;-80
2023/06/05 06:50:34;;;;;;;6.28;2.00;;;20.70;78.50;;;21.73;59.23;101385.94;5210688;28;20052;-79
2023/06/05 06:53:07;;;;;;;2.38;1.40;;;20.90;78.80;;;21.93;58.51;101394.75;5211310;28;20120;-80
2023/06/05 06:55:39;;;;;;;2.58;1.48;;;21.10;78.10;;;22.05;57.43;101392.97;5201654;28;20049;-77
2023/06/05 06:58:13;;;;;;;2.05;1.30;;;21.20;76.60;;;22.15;57.27;101392.06;5206610;28;20048;-80
2023/06/05 07:00:45;;;;;;;1.77;1.27;;;21.40;76.10;;;22.34;57.36;101390.22;5204401;28;20042;-82
2023/06/05 07:03:19;;;;;;;4.15;1.60;;;21.50;76.10;;;22.54;56.78;101387.47;5208926;28;20072;-79
2023/06/05 07:05:52;;;;;;;3.90;1.42;;;21.70;75.50;;;22.69;55.75;101393.59;5211183;28;20053;-78
2023/06/05 07:08:24;;;;;;;4.47;1.77;;;21.90;74.40;;;22.76;56.64;101386.47;5206157;28;20136;-79
2023/06/05 07:10:57;;;;;;;4.03;1.60;;;21.90;74.80;;;22.90;57.26;101391.72;5220309;28;20618;-79
2023/06/05 07:13:29;;;;;;;4.22;1.45;;;22.10;75.60;;;22.99;57.01;101389.88;5203726;28;20136;-78
2023/06/05 07:16:02;;;;;;;4.05;1.70;;;22.10;74.90;;;23.00;56.96;101388.97;5216593;28;20435;-79
2023/06/05 07:18:37;;;;;;;3.40;1.67;;;22.20;74.80;;;22.99;57.19;101386.34;5213219;28;20412;-79
2023/06/05 07:21:10;;;;;;;2.25;1.50;;;22.20;74.90;;;22.94;57.35;101388.16;5213798;28;20044;-78
2023/06/05 07:23:44;;;;;;;4.57;1.70;;;22.10;74.80;;;22.93;57.82;101381.94;5221983;28;20411;-78
2023/06/05 07:26:17;;;;;;;2.85;1.60;;;22.10;75.30;;;22.95;58.11;101384.59;5210685;28;20175;-78
2023/06/05 07:28:49;;;;;;;2.80;1.33;;;22.10;75.50;;;22.95;58.36;101387.25;5223575;28;20528;-78
2023/06/05 07:31:22;;;;;;;3.78;1.50;;;22.10;75.70;;;22.99;58.88;101381.91;5219732;28;20049;-76
2023/06/05 07:33:55;;;;;;;3.20;1.50;;;22.10;76.20;;;23.02;58.25;101387.22;5187170;28;20057;-79
2023/06/05 07:36:27;;;;;;;2.60;1.20;;;22.10;75.80;;;23.10;58.68;101383.63;5209313;28;20045;-80
2023/06/05 07:39:00;;;;;;;1.55;1.20;;;22.10;75.90;;;23.18;58.22;101382.66;5204457;28;20041;-77
2023/06/05 07:41:32;;;;;;;2.85;1.20;;;22.20;75.80;;;23.28;57.35;101380.81;5210728;28;20535;-79
2023/06/05 07:44:04;;;;;;;2.97;1.38;;;22.20;75.00;;;23.44;57.56;101382.44;5210891;28;20046;-78
2023/06/05 07:46:37;;;;;;;1.83;1.20;;;22.40;75.20;;;23.48;56.69;101384.19;5172266;28;20053;-78
2023/06/05 07:49:15;;;;;;;2.83;1.20;;;22.40;75.10;;;23.53;56.68;101382.34;5219043;28;20048;-82
2023/06/05 07:51:50;;;;;;;2.92;1.27;;;22.50;74.40;;;23.70;56.20;101381.34;5188080;28;20050;-78
2023/06/05 07:54:23;;;;;;;2.78;1.25;;;22.60;74.60;;;23.88;56.37;101386.47;5216453;28;20056;-79
2023/06/05 07:56:58;;;;;;;2.15;1.27;;;22.60;74.00;;;24.06;55.63;101385.38;5219557;28;20053;-77
2023/06/05 07:59:32;;;;;;;1.80;1.10;;;22.70;73.60;;;24.28;55.04;101376.25;5196056;28;20045;-78
2023/06/05 08:02:05;;;;;;;3.28;1.42;;;22.90;73.00;;;24.61;54.47;101380.28;5224105;28;20067;-80
2023/06/05 08:04:40;;;;;;;2.47;1.20;;;23.10;72.80;;;24.94;53.73;101378.03;5199333;28;20133;-80
2023/06/05 08:07:13;;;;;;;2.63;1.27;;;23.30;72.30;;;25.26;53.29;101371.31;5204135;28;20460;-79
2023/06/05 08:09:45;;;;;;;2.95;1.20;;;23.50;72.10;;;25.61;52.68;101376.91;5219967;28;20056;-79
2023/06/05 08:12:19;;;;;;;1.55;1.13;;;23.70;71.60;;;26.00;51.63;101363.75;5201488;28;20059;-79
2023/06/05 08:14:51;;;;;;;3.75;1.35;;;23.90;70.70;;;26.34;51.15;101363.91;5213999;28;20057;-79
2023/06/05 08:17:24;;;;;;;3.33;1.23;;;24.00;70.20;;;26.75;49.78;101360.38;5198330;28;20041;-79
2023/06/05 08:19:58;;;;;;;2.85;1.52;;;24.20;69.30;;;27.39;48.86;101362.44;5210646;28;20050;-79
2023/06/05 08:22:30;;;;;;;1.75;1.20;;;24.60;68.80;;;28.15;47.87;101368.38;5213472;28;20068;-77
2023/06/05 08:25:04;;;;;;;1.42;0.98;;;25.00;68.40;;;28.96;47.30;101360.59;5211807;28;20533;-77
2023/06/05 08:27:36;;;;;;;1.80;1.30;;;25.50;68.20;;;29.74;45.07;101349.88;5174769;28;20053;-78
2023/06/05 08:30:09;;;;;;;2.85;1.33;;;25.90;66.50;;;30.46;43.07;101353.44;5203771;28;20049;-78
2023/06/05 08:32:43;;;;;;;2.45;1.40;;;26.30;64.40;;;31.24;41.88;101360.22;5223492;28;20045;-82
2023/06/05 08:35:18;;;;;;;2.15;1.20;;;26.70;63.20;;;32.34;40.60;101356.22;5211322;28;20037;-82
2023/06/05 08:37:50;;;;;;;2.80;1.20;;;27.40;62.60;;;33.40;38.54;101348.31;5207859;28;20045;-82
2023/06/05 08:40:24;;;;;;;2.78;1.20;;;28.30;60.40;;;34.26;36.71;101350.88;5212175;28;20041;-82
2023/06/05 08:42:56;;;;;;;1.83;1.20;;;29.20;57.70;;;34.99;35.93;101350.41;5217200;28;20058;-83
2023/06/05 08:45:28;;;;;;;1.70;1.17;;;30.00;55.80;;;35.61;33.87;101354.81;5225282;28;20048;-83
2023/06/05 08:48:02;;;;;;;2.05;1.30;;;30.90;53.30;;;36.11;33.38;101363.47;5218059;28;20053;-82
2023/06/05 08:50:38;;;;;;;3.40;1.25;;;31.50;51.70;;;36.51;32.77;101350.06;5207497;28;20505;-82
2023/06/05 08:53:12;;;;;;;2.28;1.10;;;32.00;50.90;;;36.88;32.52;101360.28;5205508;28;20056;-83
2023/06/05 08:55:45;;;;;;;1.63;1.13;;;32.30;50.60;;;37.02;32.26;101355.78;5207551;28;20394;-81
2023/06/05 08:58:18;;;;;;;2.63;1.02;;;32.50;50.00;;;37.22;32.36;101347.13;5215053;28;20038;-82
2023/06/05 09:00:50;;;;;;;2.13;1.17;;;32.70;49.50;;;37.30;31.57;101344.78;5188374;28;20064;-82
2023/06/05 09:03:23;;;;;;;3.80;1.23;;;32.80;48.90;;;37.48;31.80;101346.22;5205931;28;20556;-81
2023/06/05 09:05:57;;;;;;;3.15;1.55;;;33.00;48.80;;;37.69;32.07;101340.25;5195553;28;20168;-77
2023/06/05 09:08:32;;;;;;;4.57;1.70;;;33.10;49.00;;;37.76;31.61;101336.16;5194875;28;20519;-83
2023/06/05 09:11:28;;;;;;;3.30;1.80;;;33.30;48.60;;;37.77;31.80;101332.44;5208972;28;20048;-83
2023/06/05 09:14:02;;;;;;;3.15;1.65;;;33.50;48.20;;;37.68;31.36;101338.53;5230453;28;20036;-84
2023/06/05 09:16:37;;;;;;;3.90;1.40;;;33.40;47.60;;;37.25;31.67;101336.06;5232809;28;20049;-84
2023/06/05 09:19:11;;;;;;;1.77;1.17;;;33.20;47.30;;;36.69;31.81;101333.44;5219072;28;20051;-86
2023/06/05 09:21:54;;;;;;;2.08;1.20;;;32.80;47.50;;;36.23;32.49;101334.69;5229221;28;20455;-78
2023/06/05 09:24:29;;;;;;;3.13;1.23;;;32.60;47.70;;;35.97;33.37;101333.63;5207402;28;20067;-78
2023/06/05 09:27:04;;;;;;;3.05;1.00;;;32.40;48.20;;;35.51;33.73;101328.34;5210966;28;20049;-78
2023/06/05 09:29:38;;;;;;;2.83;1.40;;;32.30;48.60;;;34.73;33.77;101317.56;5216448;28;20049;-80
2023/06/05 09:32:17;;;;;;;4.38;1.23;;;32.00;48.00;;;33.71;35.32;101315.13;5196934;28;20105;-80
2023/06/05 09:34:59;;;;;;;4.43;1.42;;;31.40;48.70;;;32.70;36.54;101314.00;5215920;28;20413;-80
2023/06/05 09:37:37;;;;;;;1.27;1.10;;;30.90;49.30;;;31.79;37.75;101315.56;5212021;28;20046;-79
2023/06/05 09:40:14;;;;;;;2.25;1.52;;;30.30;50.00;;;30.97;39.00;101313.72;5208034;28;20118;-78
2023/06/05 09:42:47;;;;;;;2.80;1.50;;;29.60;50.80;;;30.49;40.12;101299.50;5220070;28;20037;-78
2023/06/05 09:45:20;;;;;;;2.58;1.25;;;29.20;51.70;;;29.82;40.14;101302.09;5179837;28;20055;-77
2023/06/05 09:47:53;;;;;;;1.98;1.40;;;28.60;51.20;;;29.46;41.92;101305.13;5206806;28;20478;-78
2023/06/05 09:50:27;;;;;;;1.50;1.10;;;28.30;52.70;;;29.27;41.82;101301.34;5210676;28;20537;-77
2023/06/05 09:53:01;;;;;;;;;;;28.10;52.80;;;29.07;42.27;101295.78;5207528;28;20048;-76
2023/06/05 09:55:33;;;;;;;2.80;1.40;;;27.90;53.20;;;29.10;43.04;101293.03;5198156;28;19931;-77
2023/06/05 09:58:11;;;;;;;2.10;1.27;;;27.90;53.80;;;29.18;42.86;101296.31;5189212;28;20048;-78
2023/06/05 10:00:44;;;;;;;3.13;1.52;;;27.90;53.90;;;28.94;42.68;101287.28;5206118;28;20148;-77
2023/06/05 10:03:18;;;;;;;2.72;1.65;;;27.80;53.50;;;28.87;43.60;101281.22;5204700;28;20037;-77
2023/06/05 10:05:51;;;;;;;3.50;1.50;;;27.70;54.30;;;28.86;44.13;101284.81;5219696;28;20049;-79
2023/06/05 10:08:25;;;;;;;1.50;1.08;;;27.70;54.60;;;28.91;45.09;101277.53;5217523;23;20056;-56
2023/06/05 10:10:58;;;;;;;2.58;1.25;;;27.70;55.40;;;28.86;44.18;101276.78;5201844;28;20061;-58
2023/06/05 10:13:30;;;;;;;3.15;1.20;;;27.70;54.90;;;28.72;44.56;101279.03;5205579;28;20045;-56
2023/06/05 10:16:03;;;;;;;2.50;1.20;;;27.60;55.10;;;28.79;45.18;101277.91;5175742;28;20050;-56
2023/06/05 10:18:35;;;;;;;2.55;1.40;;;27.60;55.50;;;28.92;44.80;101276.59;5180529;28;20053;-56
2023/06/05 10:21:08;;;;;;;4.07;1.40;;;27.70;55.40;;;28.95;44.60;101274.72;5176887;28;20057;-57
2023/06/05 10:23:43;;;;;;;1.48;1.17;;;27.70;55.00;;;28.97;44.03;101272.91;5184848;28;20807;-55
2023/06/05 10:26:34;;;;;;;2.55;1.40;;;27.80;54.90;;;29.04;44.36;101277.13;5184171;28;20060;-56
2023/06/05 10:29:21;;;;;;;1.98;1.35;;;27.80;54.90;;;29.16;45.00;101277.59;5175763;28;20159;-56
2023/06/05 10:32:00;;;;;;;2.45;1.33;;;28.00;55.70;;;29.24;44.65;101263.00;5175702;28;20517;-55
2023/06/05 10:34:48;;;;;;;1.98;1.33;;;28.00;55.50;;;29.25;44.96;101268.31;5184155;28;20112;-56
2023/06/05 10:37:40;;;;;;;2.15;1.25;;;28.00;55.70;;;29.34;44.15;101265.31;5175349;28;20442;-56
2023/06/05 10:40:16;;;;;;;16.65;8.60;;;28.10;55.10;;;29.22;43.29;101260.38;5185736;28;20069;-55